sensor_id;sensor_type;location;lat;lon;timestamp;pressure;altitude;pressure_sealevel;temperature;humidity
30343;BME280;17145;49.902;8.680;'2023-04-08 01:57:52';100450;;;9;53
30343;BME280;17145;49.902;8.680;'2023-04-08 02:00:19';100450;;;9;53
30343;BME280;17145;49.902;8.680;'2023-04-08 02:02:47';100450;;;9;53
30343;BME280;17145;49.902;8.680;'2023-04-08 02:05:16';100450;;;9;54
30343;BME280;17145;49.902;8.680;'2023-04-08 02:07:43';100450;;;9;54
30343;BME280;17145;49.902;8.680;'2023-04-08 02:10:12';100450;;;9;54
30343;BME280;17145;49.902;8.680;'2023-04-08 02:12:40';100450;;;9;54
30343;BME280;17145;49.902;8.680;'2023-04-08 02:15:08';100450;;;9;54
30343;BME280;17145;49.902;8.680;'2023-04-08 02:17:36';100450;;;9;54
30343;BME280;17145;49.902;8.680;'2023-04-08 02:20:05';100450;;;9;54
30343;BME280;17145;49.902;8.680;'2023-04-08 02:22:33';100450;;;8;54
30343;BME280;17145;49.902;8.680;'2023-04-08 02:25:02';100450;;;9;54
30343;BME280;17145;49.902;8.680;'2023-04-08 02:27:29';100460;;;9;54
30343;BME280;17145;49.902;8.680;'2023-04-08 02:29:57';100460;;;9;54
30343;BME280;17145;49.902;8.680;'2023-04-08 02:32:25';100460;;;8;54
30343;BME280;17145;49.902;8.680;'2023-04-08 02:34:52';100460;;;9;54
30343;BME280;17145;49.902;8.680;'2023-04-08 02:37:20';100460;;;9;54
30343;BME280;17145;49.902;8.680;'2023-04-08 02:39:47';100460;;;9;54
30343;BME280;17145;49.902;8.680;'2023-04-08 02:42:15';100460;;;9;54
30343;BME280;17145;49.902;8.680;'2023-04-08 02:44:43';100460;;;9;54
30343;BME280;17145;49.902;8.680;'2023-04-08 02:47:12';100460;;;9;54
30343;BME280;17145;49.902;8.680;'2023-04-08 02:49:40';100460;;;8;54
30343;BME280;17145;49.902;8.680;'2023-04-08 02:52:07';100470;;;8;54
30343;BME280;17145;49.902;8.680;'2023-04-08 02:54:36';100470;;;8;54
30343;BME280;17145;49.902;8.680;'2023-04-08 02:57:04';100470;;;8;54
30343;BME280;17145;49.902;8.680;'2023-04-08 02:59:32';100470;;;8;54
30343;BME280;17145;49.902;8.680;'2023-04-08 03:02:10';100470;;;8;54
30343;BME280;17145;49.902;8.680;'2023-04-08 03:04:48';100470;;;8;54
30343;BME280;17145;49.902;8.680;'2023-04-08 03:07:21';100470;;;8;54
30343;BME280;17145;49.902;8.680;'2023-04-08 03:09:53';100470;;;8;54
30343;BME280;17145;49.902;8.680;'2023-04-08 03:12:29';100470;;;9;54
30343;BME280;17145;49.902;8.680;'2023-04-08 03:15:02';100470;;;8;54
30343;BME280;17145;49.902;8.680;'2023-04-08 03:17:31';100470;;;8;54
30343;BME280;17145;49.902;8.680;'2023-04-08 03:20:01';100470;;;8;53
30343;BME280;17145;49.902;8.680;'2023-04-08 03:22:44';100470;;;8;53
30343;BME280;17145;49.902;8.680;'2023-04-08 03:25:18';100470;;;9;53
30343;BME280;17145;49.902;8.680;'2023-04-08 03:27:51';100470;;;8;53
30343;BME280;17145;49.902;8.680;'2023-04-08 03:30:22';100470;;;8;54
30343;BME280;17145;49.902;8.680;'2023-04-08 03:32:53';100470;;;8;54
30343;BME280;17145;49.902;8.680;'2023-04-08 03:35:21';100470;;;8;54
30343;BME280;17145;49.902;8.680;'2023-04-08 03:37:50';100470;;;8;54
30343;BME280;17145;49.902;8.680;'2023-04-08 03:40:19';100470;;;8;54
30343;BME280;17145;49.902;8.680;'2023-04-08 03:42:49';100460;;;8;54
30343;BME280;17145;49.902;8.680;'2023-04-08 03:45:18';100470;;;8;54
30343;BME280;17145;49.902;8.680;'2023-04-08 03:47:48';100470;;;8;54
30343;BME280;17145;49.902;8.680;'2023-04-08 03:50:17';100460;;;8;54
30343;BME280;17145;49.902;8.680;'2023-04-08 03:52:47';100460;;;8;54
30343;BME280;17145;49.902;8.680;'2023-04-08 03:55:16';100470;;;8;54
30343;BME280;17145;49.902;8.680;'2023-04-08 03:57:49';100460;;;8;54
30343;BME280;17145;49.902;8.680;'2023-04-08 04:00:21';100470;;;8;54
30343;BME280;17145;49.902;8.680;'2023-04-08 04:02:50';100470;;;8;54
30343;BME280;17145;49.902;8.680;'2023-04-08 04:05:18';100470;;;8;54
30343;BME280;17145;49.902;8.680;'2023-04-08 04:07:47';100470;;;9;54
30343;BME280;17145;49.902;8.680;'2023-04-08 04:10:15';100470;;;8;54
30343;BME280;17145;49.902;8.680;'2023-04-08 04:12:45';100470;;;8;54
30343;BME280;17145;49.902;8.680;'2023-04-08 04:15:13';100470;;;8;54
30343;BME280;17145;49.902;8.680;'2023-04-08 04:17:45';100470;;;8;54
30343;BME280;17145;49.902;8.680;'2023-04-08 04:20:20';100470;;;8;54
30343;BME280;17145;49.902;8.680;'2023-04-08 04:22:55';100480;;;8;54
30343;BME280;17145;49.902;8.680;'2023-04-08 04:25:24';100480;;;8;53
30343;BME280;17145;49.902;8.680;'2023-04-08 04:27:55';100480;;;8;53
30343;BME280;17145;49.902;8.680;'2023-04-08 04:30:26';100480;;;8;53
30343;BME280;17145;49.902;8.680;'2023-04-08 04:32:57';100480;;;8;53
30343;BME280;17145;49.902;8.680;'2023-04-08 04:35:26';100480;;;8;53
30343;BME280;17145;49.902;8.680;'2023-04-08 04:37:54';100480;;;8;53
30343;BME280;17145;49.902;8.680;'2023-04-08 04:40:24';100480;;;8;53
30343;BME280;17145;49.902;8.680;'2023-04-08 04:42:53';100490;;;8;53
30343;BME280;17145;49.902;8.680;'2023-04-08 04:45:21';100490;;;8;53
30343;BME280;17145;49.902;8.680;'2023-04-08 04:47:49';100490;;;8;53
30343;BME280;17145;49.902;8.680;'2023-04-08 04:50:16';100490;;;8;53
30343;BME280;17145;49.902;8.680;'2023-04-08 04:52:44';100490;;;7;53
30343;BME280;17145;49.902;8.680;'2023-04-08 04:55:12';100480;;;7;53
30343;BME280;17145;49.902;8.680;'2023-04-08 04:57:42';100490;;;7;53
30343;BME280;17145;49.902;8.680;'2023-04-08 05:00:12';100490;;;8;53
30343;BME280;17145;49.902;8.680;'2023-04-08 05:02:40';100490;;;7;53
30343;BME280;17145;49.902;8.680;'2023-04-08 05:05:08';100490;;;7;53
30343;BME280;17145;49.902;8.680;'2023-04-08 05:07:37';100500;;;7;53
30343;BME280;17145;49.902;8.680;'2023-04-08 05:10:06';100500;;;7;53
30343;BME280;17145;49.902;8.680;'2023-04-08 05:12:34';100500;;;7;53
30343;BME280;17145;49.902;8.680;'2023-04-08 05:15:02';100500;;;7;53
30343;BME280;17145;49.902;8.680;'2023-04-08 05:17:30';100500;;;7;53
30343;BME280;17145;49.902;8.680;'2023-04-08 05:19:58';100500;;;7;53
30343;BME280;17145;49.902;8.680;'2023-04-08 05:22:25';100500;;;7;53
30343;BME280;17145;49.902;8.680;'2023-04-08 05:24:53';100500;;;7;53
30343;BME280;17145;49.902;8.680;'2023-04-08 05:27:21';100500;;;7;53
30343;BME280;17145;49.902;8.680;'2023-04-08 05:29:49';100510;;;7;53
30343;BME280;17145;49.902;8.680;'2023-04-08 05:32:16';100510;;;7;53
30343;BME280;17145;49.902;8.680;'2023-04-08 05:34:44';100510;;;7;53
30343;BME280;17145;49.902;8.680;'2023-04-08 05:37:11';100520;;;6;53
30343;BME280;17145;49.902;8.680;'2023-04-08 05:39:39';100520;;;7;53
30343;BME280;17145;49.902;8.680;'2023-04-08 05:42:06';100520;;;7;53
30343;BME280;17145;49.902;8.680;'2023-04-08 05:44:33';100520;;;6;53
30343;BME280;17145;49.902;8.680;'2023-04-08 05:47:01';100520;;;7;53
30343;BME280;17145;49.902;8.680;'2023-04-08 05:49:28';100520;;;6;53
30343;BME280;17145;49.902;8.680;'2023-04-08 05:51:57';100520;;;6;53
30343;BME280;17145;49.902;8.680;'2023-04-08 05:54:25';100520;;;6;53
30343;BME280;17145;49.902;8.680;'2023-04-08 05:56:52';100520;;;6;53
30343;BME280;17145;49.902;8.680;'2023-04-08 05:59:20';100520;;;6;53
30343;BME280;17145;49.902;8.680;'2023-04-08 06:01:48';100520;;;6;53
30343;BME280;17145;49.902;8.680;'2023-04-08 06:04:15';100520;;;6;53
30343;BME280;17145;49.902;8.680;'2023-04-08 06:06:43';100520;;;6;53
30343;BME280;17145;49.902;8.680;'2023-04-08 06:09:11';100520;;;6;53
30343;BME280;17145;49.902;8.680;'2023-04-08 06:11:40';100520;;;6;53
30343;BME280;17145;49.902;8.680;'2023-04-08 06:14:07';100520;;;6;53
30343;BME280;17145;49.902;8.680;'2023-04-08 06:16:35';100530;;;6;53
30343;BME280;17145;49.902;8.680;'2023-04-08 06:19:02';100530;;;6;53
30343;BME280;17145;49.902;8.680;'2023-04-08 06:21:29';100530;;;6;53
30343;BME280;17145;49.902;8.680;'2023-04-08 06:23:58';100540;;;6;53
30343;BME280;17145;49.902;8.680;'2023-04-08 06:26:26';100540;;;6;52
30343;BME280;17145;49.902;8.680;'2023-04-08 06:28:53';100540;;;6;52
30343;BME280;17145;49.902;8.680;'2023-04-08 06:31:23';100540;;;6;53
30343;BME280;17145;49.902;8.680;'2023-04-08 06:33:51';100540;;;6;52
30343;BME280;17145;49.902;8.680;'2023-04-08 06:36:20';100540;;;6;52
30343;BME280;17145;49.902;8.680;'2023-04-08 06:38:49';100540;;;6;52
30343;BME280;17145;49.902;8.680;'2023-04-08 06:41:16';100540;;;6;52
30343;BME280;17145;49.902;8.680;'2023-04-08 06:43:44';100540;;;6;52
30343;BME280;17145;49.902;8.680;'2023-04-08 06:46:11';100540;;;6;52
30343;BME280;17145;49.902;8.680;'2023-04-08 06:48:39';100540;;;5;52
30343;BME280;17145;49.902;8.680;'2023-04-08 06:51:07';100540;;;6;52
30343;BME280;17145;49.902;8.680;'2023-04-08 06:53:34';100540;;;6;53
30343;BME280;17145;49.902;8.680;'2023-04-08 06:56:02';100550;;;6;52
30343;BME280;17145;49.902;8.680;'2023-04-08 06:58:31';100550;;;6;52
30343;BME280;17145;49.902;8.680;'2023-04-08 07:00:58';100550;;;6;53
30343;BME280;17145;49.902;8.680;'2023-04-08 07:03:25';100550;;;6;53
30343;BME280;17145;49.902;8.680;'2023-04-08 07:05:54';100550;;;6;53
30343;BME280;17145;49.902;8.680;'2023-04-08 07:08:21';100550;;;6;53
30343;BME280;17145;49.902;8.680;'2023-04-08 07:10:49';100550;;;6;53
30343;BME280;17145;49.902;8.680;'2023-04-08 07:13:17';100560;;;6;53
30343;BME280;17145;49.902;8.680;'2023-04-08 07:15:45';100560;;;6;53
30343;BME280;17145;49.902;8.680;'2023-04-08 07:18:13';100560;;;6;53
30343;BME280;17145;49.902;8.680;'2023-04-08 07:20:41';100560;;;5;53
30343;BME280;17145;49.902;8.680;'2023-04-08 07:23:08';100560;;;6;53
30343;BME280;17145;49.902;8.680;'2023-04-08 07:25:37';100570;;;6;53
30343;BME280;17145;49.902;8.680;'2023-04-08 07:28:05';100570;;;5;53
30343;BME280;17145;49.902;8.680;'2023-04-08 07:30:32';100570;;;5;53
30343;BME280;17145;49.902;8.680;'2023-04-08 07:33:00';100580;;;5;53
30343;BME280;17145;49.902;8.680;'2023-04-08 07:35:27';100580;;;5;53
30343;BME280;17145;49.902;8.680;'2023-04-08 07:37:55';100590;;;5;53
30343;BME280;17145;49.902;8.680;'2023-04-08 07:40:23';100590;;;5;53
30343;BME280;17145;49.902;8.680;'2023-04-08 07:42:50';100590;;;5;53
30343;BME280;17145;49.902;8.680;'2023-04-08 07:45:18';100590;;;5;53
30343;BME280;17145;49.902;8.680;'2023-04-08 07:47:45';100590;;;5;53
30343;BME280;17145;49.902;8.680;'2023-04-08 07:50:13';100600;;;5;53
30343;BME280;17145;49.902;8.680;'2023-04-08 07:52:42';100600;;;5;53
30343;BME280;17145;49.902;8.680;'2023-04-08 07:55:10';100600;;;5;53
30343;BME280;17145;49.902;8.680;'2023-04-08 07:57:37';100610;;;5;53
30343;BME280;17145;49.902;8.680;'2023-04-08 08:00:08';100600;;;5;53
30343;BME280;17145;49.902;8.680;'2023-04-08 08:02:36';100610;;;5;53
30343;BME280;17145;49.902;8.680;'2023-04-08 08:05:04';100610;;;5;53
30343;BME280;17145;49.902;8.680;'2023-04-08 08:07:33';100610;;;5;53
30343;BME280;17145;49.902;8.680;'2023-04-08 08:10:00';100610;;;6;53
30343;BME280;17145;49.902;8.680;'2023-04-08 08:12:28';100610;;;5;53
30343;BME280;17145;49.902;8.680;'2023-04-08 08:14:56';100610;;;6;53
30343;BME280;17145;49.902;8.680;'2023-04-08 08:17:24';100620;;;5;54
30343;BME280;17145;49.902;8.680;'2023-04-08 08:19:51';100620;;;6;54
30343;BME280;17145;49.902;8.680;'2023-04-08 08:22:19';100620;;;6;54
30343;BME280;17145;49.902;8.680;'2023-04-08 08:24:48';100620;;;6;54
30343;BME280;17145;49.902;8.680;'2023-04-08 08:27:15';100620;;;6;54
30343;BME280;17145;49.902;8.680;'2023-04-08 08:29:43';100620;;;5;55
30343;BME280;17145;49.902;8.680;'2023-04-08 08:32:11';100620;;;6;55
30343;BME280;17145;49.902;8.680;'2023-04-08 08:34:38';100620;;;6;55
30343;BME280;17145;49.902;8.680;'2023-04-08 08:37:06';100630;;;6;55
30343;BME280;17145;49.902;8.680;'2023-04-08 08:39:33';100630;;;6;55
30343;BME280;17145;49.902;8.680;'2023-04-08 08:42:01';100630;;;7;55
30343;BME280;17145;49.902;8.680;'2023-04-08 08:44:29';100630;;;6;55
30343;BME280;17145;49.902;8.680;'2023-04-08 08:46:57';100630;;;6;55
30343;BME280;17145;49.902;8.680;'2023-04-08 08:49:24';100640;;;6;55
30343;BME280;17145;49.902;8.680;'2023-04-08 08:51:52';100640;;;7;54
30343;BME280;17145;49.902;8.680;'2023-04-08 08:54:20';100640;;;6;54
30343;BME280;17145;49.902;8.680;'2023-04-08 08:56:48';100640;;;7;53
30343;BME280;17145;49.902;8.680;'2023-04-08 08:59:15';100640;;;7;53
30343;BME280;17145;49.902;8.680;'2023-04-08 09:01:43';100650;;;7;52
30343;BME280;17145;49.902;8.680;'2023-04-08 09:04:10';100650;;;7;52
30343;BME280;17145;49.902;8.680;'2023-04-08 09:06:38';100650;;;7;53
30343;BME280;17145;49.902;8.680;'2023-04-08 09:09:06';100650;;;7;53
30343;BME280;17145;49.902;8.680;'2023-04-08 09:11:33';100660;;;7;52
30343;BME280;17145;49.902;8.680;'2023-04-08 09:14:02';100660;;;7;52
30343;BME280;17145;49.902;8.680;'2023-04-08 09:16:29';100660;;;7;52
30343;BME280;17145;49.902;8.680;'2023-04-08 09:18:57';100660;;;7;52
30343;BME280;17145;49.902;8.680;'2023-04-08 09:21:25';100660;;;7;51
30343;BME280;17145;49.902;8.680;'2023-04-08 09:23:53';100660;;;7;51
30343;BME280;17145;49.902;8.680;'2023-04-08 09:26:21';100660;;;7;51
30343;BME280;17145;49.902;8.680;'2023-04-08 09:28:49';100660;;;8;51
30343;BME280;17145;49.902;8.680;'2023-04-08 09:31:18';100660;;;8;50
30343;BME280;17145;49.902;8.680;'2023-04-08 09:33:46';100660;;;8;49
30343;BME280;17145;49.902;8.680;'2023-04-08 09:36:14';100670;;;8;50
30343;BME280;17145;49.902;8.680;'2023-04-08 09:38:43';100670;;;8;50
30343;BME280;17145;49.902;8.680;'2023-04-08 09:41:11';100670;;;8;50
30343;BME280;17145;49.902;8.680;'2023-04-08 09:43:38';100670;;;8;49
30343;BME280;17145;49.902;8.680;'2023-04-08 09:46:07';100670;;;8;49
30343;BME280;17145;49.902;8.680;'2023-04-08 09:48:35';100670;;;8;49
30343;BME280;17145;49.902;8.680;'2023-04-08 09:51:04';100670;;;8;48
30343;BME280;17145;49.902;8.680;'2023-04-08 09:53:34';100670;;;8;48
30343;BME280;17145;49.902;8.680;'2023-04-08 09:56:08';100670;;;8;47
30343;BME280;17145;49.902;8.680;'2023-04-08 09:58:35';100670;;;9;47
30343;BME280;17145;49.902;8.680;'2023-04-08 10:01:04';100670;;;9;47
30343;BME280;17145;49.902;8.680;'2023-04-08 10:03:33';100680;;;9;47
30343;BME280;17145;49.902;8.680;'2023-04-08 10:06:01';100680;;;9;46
30343;BME280;17145;49.902;8.680;'2023-04-08 10:08:28';100680;;;8;46
30343;BME280;17145;49.902;8.680;'2023-04-08 10:10:56';100690;;;9;47
30343;BME280;17145;49.902;8.680;'2023-04-08 10:13:23';100690;;;9;46
30343;BME280;17145;49.902;8.680;'2023-04-08 10:15:52';100690;;;9;46
30343;BME280;17145;49.902;8.680;'2023-04-08 10:18:20';100690;;;9;47
30343;BME280;17145;49.902;8.680;'2023-04-08 10:20:49';100690;;;9;46
30343;BME280;17145;49.902;8.680;'2023-04-08 10:23:17';100690;;;9;45
30343;BME280;17145;49.902;8.680;'2023-04-08 10:25:45';100690;;;9;45
30343;BME280;17145;49.902;8.680;'2023-04-08 10:28:13';100700;;;9;45
30343;BME280;17145;49.902;8.680;'2023-04-08 10:30:41';100700;;;9;44
30343;BME280;17145;49.902;8.680;'2023-04-08 10:33:12';100700;;;9;42
30343;BME280;17145;49.902;8.680;'2023-04-08 10:35:39';100700;;;9;42
30343;BME280;17145;49.902;8.680;'2023-04-08 10:38:07';100710;;;9;43
30343;BME280;17145;49.902;8.680;'2023-04-08 10:40:35';100710;;;9;41
30343;BME280;17145;49.902;8.680;'2023-04-08 10:43:02';100700;;;9;41
30343;BME280;17145;49.902;8.680;'2023-04-08 10:45:32';100710;;;9;42
30343;BME280;17145;49.902;8.680;'2023-04-08 10:47:59';100710;;;9;41
30343;BME280;17145;49.902;8.680;'2023-04-08 10:50:27';100710;;;9;41
30343;BME280;17145;49.902;8.680;'2023-04-08 10:52:56';100710;;;9;41
30343;BME280;17145;49.902;8.680;'2023-04-08 10:55:23';100710;;;9;40
30343;BME280;17145;49.902;8.680;'2023-04-08 11:03:13';100720;;;9;42
30343;BME280;17145;49.902;8.680;'2023-04-08 11:05:46';100720;;;9;41
30343;BME280;17145;49.902;8.680;'2023-04-08 11:08:24';100720;;;9;40
30343;BME280;17145;49.902;8.680;'2023-04-08 11:10:52';100720;;;9;40
30343;BME280;17145;49.902;8.680;'2023-04-08 11:13:22';100720;;;9;39
30343;BME280;17145;49.902;8.680;'2023-04-08 11:16:02';100720;;;9;40
30343;BME280;17145;49.902;8.680;'2023-04-08 11:18:30';100730;;;9;39
30343;BME280;17145;49.902;8.680;'2023-04-08 11:21:00';100730;;;9;40
30343;BME280;17145;49.902;8.680;'2023-04-08 11:23:38';100730;;;9;39
30343;BME280;17145;49.902;8.680;'2023-04-08 11:26:08';100740;;;9;40
30343;BME280;17145;49.902;8.680;'2023-04-08 11:28:36';100740;;;9;39
30343;BME280;17145;49.902;8.680;'2023-04-08 11:31:18';100740;;;10;40
30343;BME280;17145;49.902;8.680;'2023-04-08 11:33:46';100740;;;10;40
30343;BME280;17145;49.902;8.680;'2023-04-08 11:36:14';100740;;;10;40
30343;BME280;17145;49.902;8.680;'2023-04-08 11:38:42';100730;;;9;39
30343;BME280;17145;49.902;8.680;'2023-04-08 11:41:13';100730;;;10;39
30343;BME280;17145;49.902;8.680;'2023-04-08 11:43:43';100730;;;10;40
30343;BME280;17145;49.902;8.680;'2023-04-08 11:46:12';100730;;;10;40
30343;BME280;17145;49.902;8.680;'2023-04-08 11:48:47';100720;;;10;39
30343;BME280;17145;49.902;8.680;'2023-04-08 11:51:17';100720;;;10;39
30343;BME280;17145;49.902;8.680;'2023-04-08 11:53:48';100720;;;10;39
30343;BME280;17145;49.902;8.680;'2023-04-08 11:56:18';100730;;;10;38
30343;BME280;17145;49.902;8.680;'2023-04-08 11:58:53';100730;;;10;38
30343;BME280;17145;49.902;8.680;'2023-04-08 12:01:30';100730;;;10;37
30343;BME280;17145;49.902;8.680;'2023-04-08 12:04:03';100730;;;10;36
30343;BME280;17145;49.902;8.680;'2023-04-08 12:06:33';100730;;;10;37
30343;BME280;17145;49.902;8.680;'2023-04-08 12:09:02';100730;;;10;36
30343;BME280;17145;49.902;8.680;'2023-04-08 12:11:31';100730;;;10;36
30343;BME280;17145;49.902;8.680;'2023-04-08 12:13:59';100730;;;10;36
30343;BME280;17145;49.902;8.680;'2023-04-08 12:16:26';100730;;;10;37
30343;BME280;17145;49.902;8.680;'2023-04-08 12:18:55';100730;;;10;36
30343;BME280;17145;49.902;8.680;'2023-04-08 12:21:33';100730;;;10;36
30343;BME280;17145;49.902;8.680;'2023-04-08 12:24:04';100720;;;10;36
30343;BME280;17145;49.902;8.680;'2023-04-08 12:29:22';100720;;;10;37
30343;BME280;17145;49.902;8.680;'2023-04-08 12:31:50';100720;;;10;37
30343;BME280;17145;49.902;8.680;'2023-04-08 12:34:19';100720;;;10;37
30343;BME280;17145;49.902;8.680;'2023-04-08 12:36:48';100720;;;10;37
30343;BME280;17145;49.902;8.680;'2023-04-08 12:39:16';100720;;;10;37
30343;BME280;17145;49.902;8.680;'2023-04-08 12:41:45';100720;;;10;37
30343;BME280;17145;49.902;8.680;'2023-04-08 12:44:18';100730;;;10;37
30343;BME280;17145;49.902;8.680;'2023-04-08 12:46:48';100730;;;10;38
30343;BME280;17145;49.902;8.680;'2023-04-08 12:49:17';100720;;;11;37
30343;BME280;17145;49.902;8.680;'2023-04-08 12:51:46';100720;;;11;37
30343;BME280;17145;49.902;8.680;'2023-04-08 12:54:16';100720;;;11;38
30343;BME280;17145;49.902;8.680;'2023-04-08 12:56:47';100720;;;11;38
30343;BME280;17145;49.902;8.680;'2023-04-08 12:59:22';100720;;;11;39
30343;BME280;17145;49.902;8.680;'2023-04-08 13:01:49';100720;;;10;39
30343;BME280;17145;49.902;8.680;'2023-04-08 13:04:17';100720;;;10;39
30343;BME280;17145;49.902;8.680;'2023-04-08 13:06:48';100720;;;10;39
30343;BME280;17145;49.902;8.680;'2023-04-08 13:09:16';100720;;;11;39
30343;BME280;17145;49.902;8.680;'2023-04-08 13:11:46';100720;;;10;39
30343;BME280;17145;49.902;8.680;'2023-04-08 13:14:14';100720;;;10;39
30343;BME280;17145;49.902;8.680;'2023-04-08 13:16:42';100720;;;10;38
30343;BME280;17145;49.902;8.680;'2023-04-08 13:19:13';100720;;;11;39
30343;BME280;17145;49.902;8.680;'2023-04-08 13:21:41';100720;;;11;38
30343;BME280;17145;49.902;8.680;'2023-04-08 13:24:10';100720;;;11;39
30343;BME280;17145;49.902;8.680;'2023-04-08 13:26:39';100710;;;11;38
30343;BME280;17145;49.902;8.680;'2023-04-08 13:29:11';100710;;;12;37
30343;BME280;17145;49.902;8.680;'2023-04-08 13:34:19';100700;;;12;37
30343;BME280;17145;49.902;8.680;'2023-04-08 13:36:48';100700;;;12;37
30343;BME280;17145;49.902;8.680;'2023-04-08 13:39:16';100700;;;12;37
30343;BME280;17145;49.902;8.680;'2023-04-08 13:41:45';100700;;;12;37
30343;BME280;17145;49.902;8.680;'2023-04-08 13:46:52';100700;;;12;37
30343;BME280;17145;49.902;8.680;'2023-04-08 13:49:24';100690;;;12;37
30343;BME280;17145;49.902;8.680;'2023-04-08 13:51:58';100700;;;12;36
30343;BME280;17145;49.902;8.680;'2023-04-08 13:54:32';100700;;;12;36
30343;BME280;17145;49.902;8.680;'2023-04-08 13:57:01';100700;;;12;36
30343;BME280;17145;49.902;8.680;'2023-04-08 13:59:31';100700;;;13;37
30343;BME280;17145;49.902;8.680;'2023-04-08 14:01:58';100690;;;13;37
30343;BME280;17145;49.902;8.680;'2023-04-08 14:04:27';100690;;;13;37
30343;BME280;17145;49.902;8.680;'2023-04-08 14:06:58';100700;;;13;36
30343;BME280;17145;49.902;8.680;'2023-04-08 14:09:26';100690;;;13;37
30343;BME280;17145;49.902;8.680;'2023-04-08 14:11:54';100690;;;13;36
30343;BME280;17145;49.902;8.680;'2023-04-08 14:14:24';100690;;;12;36
30343;BME280;17145;49.902;8.680;'2023-04-08 14:16:55';100690;;;13;37
30343;BME280;17145;49.902;8.680;'2023-04-08 14:19:25';100690;;;13;37
30343;BME280;17145;49.902;8.680;'2023-04-08 14:21:57';100690;;;13;37
30343;BME280;17145;49.902;8.680;'2023-04-08 14:24:27';100690;;;14;37
30343;BME280;17145;49.902;8.680;'2023-04-08 14:26:56';100680;;;14;36
30343;BME280;17145;49.902;8.680;'2023-04-08 14:29:25';100680;;;14;35
30343;BME280;17145;49.902;8.680;'2023-04-08 14:31:56';100670;;;15;35
30343;BME280;17145;49.902;8.680;'2023-04-08 14:34:24';100670;;;15;34
30343;BME280;17145;49.902;8.680;'2023-04-08 14:36:55';100660;;;15;34
30343;BME280;17145;49.902;8.680;'2023-04-08 14:39:25';100660;;;15;34
30343;BME280;17145;49.902;8.680;'2023-04-08 14:41:54';100650;;;15;33
30343;BME280;17145;49.902;8.680;'2023-04-08 14:44:24';100660;;;15;33
30343;BME280;17145;49.902;8.680;'2023-04-08 14:46:53';100660;;;15;33
30343;BME280;17145;49.902;8.680;'2023-04-08 14:49:22';100660;;;14;33
30343;BME280;17145;49.902;8.680;'2023-04-08 14:51:49';100660;;;14;33
30343;BME280;17145;49.902;8.680;'2023-04-08 14:54:18';100660;;;14;33
30343;BME280;17145;49.902;8.680;'2023-04-08 14:56:50';100660;;;14;34
30343;BME280;17145;49.902;8.680;'2023-04-08 14:59:19';100670;;;14;34
30343;BME280;17145;49.902;8.680;'2023-04-08 15:01:49';100660;;;14;35
30343;BME280;17145;49.902;8.680;'2023-04-08 15:04:18';100660;;;14;34
30343;BME280;17145;49.902;8.680;'2023-04-08 15:06:46';100670;;;15;34
30343;BME280;17145;49.902;8.680;'2023-04-08 15:09:16';100670;;;15;33
30343;BME280;17145;49.902;8.680;'2023-04-08 15:11:46';100670;;;15;33
30343;BME280;17145;49.902;8.680;'2023-04-08 15:14:16';100660;;;16;33
30343;BME280;17145;49.902;8.680;'2023-04-08 15:16:45';100660;;;16;32
30343;BME280;17145;49.902;8.680;'2023-04-08 15:19:16';100660;;;16;33
30343;BME280;17145;49.902;8.680;'2023-04-08 15:21:45';100660;;;16;33
30343;BME280;17145;49.902;8.680;'2023-04-08 15:24:15';100660;;;16;32
30343;BME280;17145;49.902;8.680;'2023-04-08 15:26:45';100650;;;16;32
30343;BME280;17145;49.902;8.680;'2023-04-08 15:29:18';100650;;;16;32
30343;BME280;17145;49.902;8.680;'2023-04-08 15:31:47';100650;;;16;32
30343;BME280;17145;49.902;8.680;'2023-04-08 15:34:18';100650;;;16;32
30343;BME280;17145;49.902;8.680;'2023-04-08 15:36:49';100650;;;16;33
30343;BME280;17145;49.902;8.680;'2023-04-08 15:39:17';100650;;;16;33
30343;BME280;17145;49.902;8.680;'2023-04-08 15:41:48';100650;;;16;33
30343;BME280;17145;49.902;8.680;'2023-04-08 15:44:17';100660;;;15;33
30343;BME280;17145;49.902;8.680;'2023-04-08 15:46:45';100660;;;15;33
30343;BME280;17145;49.902;8.680;'2023-04-08 15:49:16';100660;;;15;34
30343;BME280;17145;49.902;8.680;'2023-04-08 15:51:47';100670;;;15;36
30343;BME280;17145;49.902;8.680;'2023-04-08 15:54:16';100670;;;14;35
30343;BME280;17145;49.902;8.680;'2023-04-08 15:56:51';100670;;;14;35
30343;BME280;17145;49.902;8.680;'2023-04-08 15:59:22';100670;;;14;36
30343;BME280;17145;49.902;8.680;'2023-04-08 16:01:50';100670;;;14;37
30343;BME280;17145;49.902;8.680;'2023-04-08 16:04:22';100670;;;13;36
30343;BME280;17145;49.902;8.680;'2023-04-08 16:06:50';100680;;;14;36
30343;BME280;17145;49.902;8.680;'2023-04-08 16:09:19';100680;;;14;37
30343;BME280;17145;49.902;8.680;'2023-04-08 16:11:51';100680;;;14;37
30343;BME280;17145;49.902;8.680;'2023-04-08 16:14:19';100680;;;13;37
30343;BME280;17145;49.902;8.680;'2023-04-08 16:16:47';100680;;;13;37
30343;BME280;17145;49.902;8.680;'2023-04-08 16:19:18';100680;;;14;37
30343;BME280;17145;49.902;8.680;'2023-04-08 16:21:54';100680;;;13;37
30343;BME280;17145;49.902;8.680;'2023-04-08 16:24:21';100670;;;13;37
30343;BME280;17145;49.902;8.680;'2023-04-08 16:26:51';100680;;;13;38
30343;BME280;17145;49.902;8.680;'2023-04-08 16:29:19';100680;;;13;38
30343;BME280;17145;49.902;8.680;'2023-04-08 16:31:48';100680;;;13;38
30343;BME280;17145;49.902;8.680;'2023-04-08 16:34:18';100680;;;13;38
30343;BME280;17145;49.902;8.680;'2023-04-08 16:36:47';100680;;;12;39